Time;durP1;ratioP1;P1;durP2;ratioP2;P2;SDS_P1;SDS_P2;PMS_P1;PMS_P2;Temp;Humidity;BMP_temperature;BMP_pressure;BME280_temperature;BME280_humidity;BME280_pressure;Samples;Min_cycle;Max_cycle;Signal;HPM_P1;HPM_P2
2022/10/21 00:01:11;;;;;;;;;;;;;;;3.20;65.67;100097.66;5104689;28;19934;-63
2022/10/21 00:03:38;;;;;;;;;;;;;;;3.22;65.87;100089.34;5103487;28;19928;-63
2022/10/21 00:06:04;;;;;;;;;;;;;;;3.23;65.67;100091.81;5106137;28;19932;-63
2022/10/21 00:08:30;;;;;;;;;;;;;;;3.24;65.72;100084.56;5103698;28;20038;-63
2022/10/21 00:10:57;;;;;;;;;;;;;;;3.24;65.55;100089.97;5102816;28;20331;-64
2022/10/21 00:13:23;;;;;;;;;;;;;;;3.20;65.61;100089.56;5104374;28;19934;-63
2022/10/21 00:15:58;;;;;;;;;;;;;;;3.09;65.99;100093.81;5105379;28;19967;-63
2022/10/21 00:18:25;;;;;;;;;;;;;;;3.00;66.45;100089.69;5104210;28;19973;-63
2022/10/21 00:20:52;;;;;;;;;;;;;;;2.99;66.59;100088.03;5105551;28;19947;-64
2022/10/21 00:23:18;;;;;;;;;;;;;;;2.95;66.71;100090.34;5105243;28;19934;-63
2022/10/21 00:25:44;;;;;;;;;;;;;;;2.94;67.05;100080.56;5101507;28;20290;-64
2022/10/21 00:28:09;;;;;;;;;;;;;;;3.05;67.05;100078.22;5100595;28;19967;-63
2022/10/21 00:30:35;;;;;;;;;;;;;;;3.14;66.93;100065.28;5103268;28;19928;-63
2022/10/21 00:33:01;;;;;;;;;;;;;;;3.19;66.70;100065.44;5103522;28;19953;-63
2022/10/21 00:35:27;;;;;;;;;;;;;;;3.21;66.59;100061.50;5100578;28;19932;-64
2022/10/21 00:37:54;;;;;;;;;;;;;;;3.21;66.57;100058.78;5101828;28;19927;-63
2022/10/21 00:40:19;;;;;;;;;;;;;;;3.15;66.75;100059.69;5106413;28;20379;-62
2022/10/21 00:42:45;;;;;;;;;;;;;;;3.10;67.00;100052.22;5102300;28;19934;-63
2022/10/21 00:45:15;;;;;;;;;;;;;;;3.06;67.07;100045.59;5103790;28;19928;-64
2022/10/21 00:47:43;;;;;;;;;;;;;;;3.01;67.13;100040.00;5101120;28;19963;-64
2022/10/21 00:50:16;;;;;;;;;;;;;;;2.94;67.59;100045.47;5099837;28;19928;-62
2022/10/21 00:52:42;;;;;;;;;;;;;;;2.89;67.84;100036.34;5103900;28;19932;-63
2022/10/21 00:55:09;;;;;;;;;;;;;;;2.87;67.99;100033.88;5103146;28;19934;-63
2022/10/21 00:57:35;;;;;;;;;;;;;;;2.84;67.97;100031.63;5104823;28;19931;-62
2022/10/21 01:00:01;;;;;;;;;;;;;;;2.74;67.98;100034.81;5102588;28;19976;-63
2022/10/21 01:02:29;;;;;;;;;;;;;;;2.67;68.53;100042.94;5100841;28;19927;-64
2022/10/21 01:04:57;;;;;;;;;;;;;;;2.57;68.72;100039.88;5102726;28;19936;-63
2022/10/21 01:07:23;;;;;;;;;;;;;;;2.60;69.05;100052.13;5103268;28;20314;-63
2022/10/21 01:09:49;;;;;;;;;;;;;;;2.51;69.52;100046.97;5099423;28;19927;-64
2022/10/21 01:12:22;;;;;;;;;;;;;;;2.49;69.53;100053.59;5103290;28;19928;-64
2022/10/21 01:14:53;;;;;;;;;;;;;;;2.55;69.72;100055.47;5080143;28;19928;-63
2022/10/21 01:17:29;;;;;;;;;;;;;;;2.63;69.64;100051.69;5082731;28;19973;-64
2022/10/21 01:20:14;;;;;;;;;;;;;;;2.67;69.39;100053.75;5081614;28;19928;-63
2022/10/21 01:23:05;;;;;;;;;;;;;;;2.65;69.39;100047.75;5083178;28;19939;-63
2022/10/21 01:25:41;;;;;;;;;;;;;;;2.52;69.66;100058.59;5078655;28;19935;-64
2022/10/21 01:28:16;;;;;;;;;;;;;;;2.46;70.44;100049.50;5081263;28;19967;-64
2022/10/21 01:30:45;;;;;;;;;;;;;;;2.44;70.49;100062.38;5083140;28;19938;-63
2022/10/21 01:33:19;;;;;;;;;;;;;;;2.49;70.53;100059.00;5081799;28;19929;-63
2022/10/21 01:35:47;;;;;;;;;;;;;;;2.55;70.28;100064.38;5083113;28;19967;-63
2022/10/21 01:38:17;;;;;;;;;;;;;;;2.52;70.75;100072.09;5079706;28;19993;-63
2022/10/21 01:40:47;;;;;;;;;;;;;;;2.45;70.93;100055.94;5083562;28;20466;-62
2022/10/21 01:43:15;;;;;;;;;;;;;;;2.47;70.93;100059.25;5082473;28;19935;-63
2022/10/21 01:45:45;;;;;;;;;;;;;;;2.48;70.95;100060.06;5079881;28;19928;-63
2022/10/21 01:48:14;;;;;;;;;;;;;;;2.53;71.04;100057.56;5064460;28;19928;-63
2022/10/21 01:50:43;;;;;;;;;;;;;;;2.62;70.93;100052.72;5081171;28;19928;-63
2022/10/21 01:53:10;;;;;;;;;;;;;;;2.60;70.96;100052.94;5079754;28;20296;-63
2022/10/21 01:55:37;;;;;;;;;;;;;;;2.57;70.94;100050.69;5080739;28;20307;-64
2022/10/21 01:58:05;;;;;;;;;;;;;;;2.61;71.16;100054.59;5082050;28;20383;-64
2022/10/21 02:00:32;;;;;;;;;;;;;;;2.66;71.69;100049.41;5083237;28;20208;-63
2022/10/21 02:03:00;;;;;;;;;;;;;;;2.69;71.40;100054.34;5080642;28;19928;-64
2022/10/21 02:05:28;;;;;;;;;;;;;;;2.74;71.32;100056.41;5082390;28;20593;-63
2022/10/21 02:07:54;;;;;;;;;;;;;;;2.72;71.53;100063.06;5080137;28;19938;-63
2022/10/21 02:10:21;;;;;;;;;;;;;;;2.68;71.35;100055.41;5080195;28;19936;-63
2022/10/21 02:12:48;;;;;;;;;;;;;;;2.66;71.26;100062.91;5089739;28;19931;-62
2022/10/21 02:15:34;;;;;;;;;;;;;;;2.61;71.62;100054.59;5106720;28;19935;-64
2022/10/21 02:18:04;;;;;;;;;;;;;;;2.60;71.68;100052.94;5105061;28;19927;-63
2022/10/21 02:20:33;;;;;;;;;;;;;;;2.59;71.84;100053.19;5106972;28;19927;-64
2022/10/21 02:22:59;;;;;;;;;;;;;;;2.52;72.24;100054.03;5107576;28;19927;-63
2022/10/21 02:25:27;;;;;;;;;;;;;;;2.55;72.29;100071.66;5104939;28;19935;-62
2022/10/21 02:27:54;;;;;;;;;;;;;;;2.50;72.25;100066.09;5106462;28;19928;-63
2022/10/21 02:30:20;;;;;;;;;;;;;;;2.53;72.56;100068.34;5105974;28;20374;-64
2022/10/21 02:32:48;;;;;;;;;;;;;;;2.59;72.54;100072.88;5106115;28;19973;-63
2022/10/21 02:35:22;;;;;;;;;;;;;;;2.66;72.24;100068.28;5104810;28;19970;-63
2022/10/21 02:37:52;;;;;;;;;;;;;;;2.73;72.30;100083.63;5106489;28;20266;-63
2022/10/21 02:40:21;;;;;;;;;;;;;;;2.73;72.30;100080.91;5104732;28;20038;-63
2022/10/21 02:42:49;;;;;;;;;;;;;;;2.72;72.46;100090.06;5104215;28;19984;-64
2022/10/21 02:45:15;;;;;;;;;;;;;;;2.71;72.73;100086.53;5106803;28;19935;-64
2022/10/21 02:47:41;;;;;;;;;;;;;;;2.68;72.57;100082.41;5106531;28;20026;-63
2022/10/21 02:50:07;;;;;;;;;;;;;;;2.64;72.67;100083.84;5103659;28;19938;-64
2022/10/21 02:52:34;;;;;;;;;;;;;;;2.71;72.84;100078.44;5105429;28;20022;-64
2022/10/21 02:55:00;;;;;;;;;;;;;;;2.59;72.89;100053.97;5104627;28;19932;-63
2022/10/21 02:57:26;;;;;;;;;;;;;;;2.71;72.93;100077.59;5105785;28;19988;-63
2022/10/21 02:59:51;;;;;;;;;;;;;;;2.69;73.11;100069.72;5105691;28;20382;-63
2022/10/21 03:02:17;;;;;;;;;;;;;;;2.66;73.24;100073.69;5105024;28;19934;-63
2022/10/21 03:04:43;;;;;;;;;;;;;;;2.61;73.40;100069.97;5102675;28;19934;-64
2022/10/21 03:07:09;;;;;;;;;;;;;;;2.58;73.71;100063.13;5105179;27;20020;-63
2022/10/21 03:09:36;;;;;;;;;;;;;;;2.61;73.90;100069.97;5106581;28;19981;-63
2022/10/21 03:12:01;;;;;;;;;;;;;;;2.57;74.05;100060.63;5102609;28;19934;-63
2022/10/21 03:14:27;;;;;;;;;;;;;;;2.57;74.15;100056.06;5103057;28;19928;-63
2022/10/21 03:16:53;;;;;;;;;;;;;;;2.61;74.01;100068.09;5103063;28;20046;-63
2022/10/21 03:19:18;;;;;;;;;;;;;;;2.60;74.16;100061.03;5104467;28;19931;-63
2022/10/21 03:21:44;;;;;;;;;;;;;;;2.54;74.15;100059.22;5105033;28;19935;-64
2022/10/21 03:24:10;;;;;;;;;;;;;;;2.48;74.54;100054.66;5102997;28;19928;-63
2022/10/21 03:26:37;;;;;;;;;;;;;;;2.43;74.89;100051.78;5103031;28;20707;-63
2022/10/21 03:29:02;;;;;;;;;;;;;;;2.33;75.00;100058.44;5107254;28;19935;-63
2022/10/21 03:31:28;;;;;;;;;;;;;;;2.29;75.48;100062.63;5106411;28;19928;-64
2022/10/21 03:33:54;;;;;;;;;;;;;;;2.31;75.81;100055.16;5069629;28;19928;-63
2022/10/21 03:36:19;;;;;;;;;;;;;;;2.35;75.61;100061.78;5104494;28;20573;-63
2022/10/21 03:38:45;;;;;;;;;;;;;;;2.34;75.70;100057.44;5104704;28;20352;-64
2022/10/21 03:41:11;;;;;;;;;;;;;;;2.43;75.72;100062.56;5103838;28;20337;-64
2022/10/21 03:43:38;;;;;;;;;;;;;;;2.55;75.58;100068.97;5100958;28;19983;-64
2022/10/21 03:46:04;;;;;;;;;;;;;;;2.57;75.40;100072.28;5086034;28;20387;-64
2022/10/21 03:48:29;;;;;;;;;;;;;;;2.57;75.64;100077.69;5102746;28;19927;-63
2022/10/21 03:50:55;;;;;;;;;;;;;;;2.62;75.71;100072.44;5104046;28;19935;-64
2022/10/21 03:53:21;;;;;;;;;;;;;;;2.68;75.54;100068.06;5104761;28;19928;-63
2022/10/21 03:55:48;;;;;;;;;;;;;;;2.74;75.29;100069.91;5102384;28;20334;-64
2022/10/21 03:58:14;;;;;;;;;;;;;;;2.67;75.29;100063.72;5105948;28;20382;-63
2022/10/21 04:00:41;;;;;;;;;;;;;;;2.62;75.83;100064.34;5086484;28;19967;-63
2022/10/21 04:03:07;;;;;;;;;;;;;;;2.54;76.17;100061.91;5103286;28;20158;-62
2022/10/21 04:05:33;;;;;;;;;;;;;;;2.53;76.22;100065.66;5103835;28;19928;-63
2022/10/21 04:07:58;;;;;;;;;;;;;;;2.60;76.28;100063.75;5104042;28;20070;-63
2022/10/21 04:10:24;;;;;;;;;;;;;;;2.56;76.32;100076.03;5103905;28;20311;-63
2022/10/21 04:12:50;;;;;;;;;;;;;;;2.60;76.53;100071.84;5104425;28;19927;-63
2022/10/21 04:15:15;;;;;;;;;;;;;;;2.65;76.55;100073.91;5106302;28;19932;-63
2022/10/21 04:17:44;;;;;;;;;;;;;;;2.71;76.30;100083.81;5102566;28;19938;-64
2022/10/21 04:20:10;;;;;;;;;;;;;;;2.76;76.44;100083.19;5104707;28;20454;-64
2022/10/21 04:22:35;;;;;;;;;;;;;;;2.82;76.21;100087.75;5108052;27;19991;-63
2022/10/21 04:25:01;;;;;;;;;;;;;;;2.84;76.04;100083.75;5106614;28;19934;-63
2022/10/21 04:27:29;;;;;;;;;;;;;;;2.83;75.79;100084.81;5106141;28;19927;-64
2022/10/21 04:29:54;;;;;;;;;;;;;;;2.83;75.64;100089.41;5106991;28;19942;-63
2022/10/21 04:32:20;;;;;;;;;;;;;;;2.81;75.68;100089.59;5106479;28;20324;-64
2022/10/21 04:34:47;;;;;;;;;;;;;;;2.87;75.59;100098.72;5104937;28;19928;-62
2022/10/21 04:37:12;;;;;;;;;;;;;;;2.93;75.64;100095.13;5100191;28;20404;-63
2022/10/21 04:39:38;;;;;;;;;;;;;;;2.96;75.45;100093.88;5086224;27;20023;-63
2022/10/21 04:42:04;;;;;;;;;;;;;;;2.97;75.33;100098.22;5086020;28;19928;-63
2022/10/21 04:44:29;;;;;;;;;;;;;;;2.98;75.24;100098.03;5089439;28;19928;-64
2022/10/21 04:46:55;;;;;;;;;;;;;;;3.02;75.35;100094.88;5089330;28;19970;-63
2022/10/21 04:49:21;;;;;;;;;;;;;;;3.00;75.35;100100.50;5086556;28;20022;-63
2022/10/21 04:51:48;;;;;;;;;;;;;;;2.95;75.47;100097.63;5086297;28;20430;-63
2022/10/21 04:54:13;;;;;;;;;;;;;;;2.95;75.91;100094.94;5089471;28;19928;-64
2022/10/21 04:56:39;;;;;;;;;;;;;;;3.01;75.93;100095.94;5083039;28;20397;-62
2022/10/21 04:59:05;;;;;;;;;;;;;;;2.96;76.17;100092.00;5081036;28;20360;-64
2022/10/21 05:01:31;;;;;;;;;;;;;;;3.01;76.22;100088.63;5084844;28;20512;-64
2022/10/21 05:03:57;;;;;;;;;;;;;;;2.96;76.45;100097.41;5083614;28;20399;-62
2022/10/21 05:06:22;;;;;;;;;;;;;;;2.92;76.68;100089.97;5083977;28;20413;-64
2022/10/21 05:08:49;;;;;;;;;;;;;;;2.92;76.92;100096.19;5082958;28;19951;-64
2022/10/21 05:11:15;;;;;;;;;;;;;;;2.91;76.88;100097.22;5079009;28;19935;-64
2022/10/21 05:13:41;;;;;;;;;;;;;;;2.95;76.97;100103.84;5086719;28;19936;-63
2022/10/21 05:16:07;;;;;;;;;;;;;;;2.93;77.15;100089.72;5093819;28;19928;-63
2022/10/21 05:18:32;;;;;;;;;;;;;;;2.93;77.11;100097.84;5095516;28;20444;-63
2022/10/21 05:20:58;;;;;;;;;;;;;;;2.92;77.18;100096.19;5094745;28;19928;-64
2022/10/21 05:23:24;;;;;;;;;;;;;;;2.90;76.97;100100.16;5096338;28;20420;-63
2022/10/21 05:25:51;;;;;;;;;;;;;;;2.90;77.01;100094.75;5102637;28;19996;-64
2022/10/21 05:28:17;;;;;;;;;;;;;;;2.91;77.21;100097.22;5108579;28;19934;-64
2022/10/21 05:30:43;;;;;;;;;;;;;;;3.00;77.06;100092.38;5102108;28;19927;-64
2022/10/21 05:33:09;;;;;;;;;;;;;;;3.08;76.91;100096.72;5099972;28;19934;-64
2022/10/21 05:35:35;;;;;;;;;;;;;;;3.07;76.62;100101.31;5094959;28;19935;-63
2022/10/21 05:38:01;;;;;;;;;;;;;;;3.04;76.79;100111.72;5098839;28;19927;-63
2022/10/21 05:40:26;;;;;;;;;;;;;;;3.01;77.06;100106.75;5084563;28;19932;-63
2022/10/21 05:42:53;;;;;;;;;;;;;;;3.06;77.00;100110.44;5086073;28;19928;-63
2022/10/21 05:45:19;;;;;;;;;;;;;;;3.00;77.00;100108.59;5086366;28;19928;-63
2022/10/21 05:47:45;;;;;;;;;;;;;;;2.98;77.12;100119.66;5066546;28;19928;-63
2022/10/21 05:50:11;;;;;;;;;;;;;;;2.94;77.41;100120.28;5086513;28;19928;-63
2022/10/21 05:52:37;;;;;;;;;;;;;;;3.00;77.34;100124.00;5088441;28;20643;-63
2022/10/21 05:55:03;;;;;;;;;;;;;;;3.03;77.14;100135.19;5099807;28;19932;-63
2022/10/21 05:57:30;;;;;;;;;;;;;;;3.04;77.25;100127.91;5092013;28;19954;-63
2022/10/21 05:59:57;;;;;;;;;;;;;;;3.11;77.18;100134.09;5090081;28;20341;-63
2022/10/21 06:02:23;;;;;;;;;;;;;;;3.24;77.08;100127.81;5091596;28;20300;-63
2022/10/21 06:04:49;;;;;;;;;;;;;;;3.35;76.65;100113.56;5092033;28;19973;-63
2022/10/21 06:07:14;;;;;;;;;;;;;;;3.37;76.46;100124.16;5090562;28;19932;-63
2022/10/21 06:09:40;;;;;;;;;;;;;;;3.46;76.30;100125.56;5088279;28;19981;-63
2022/10/21 06:12:06;;;;;;;;;;;;;;;3.46;75.79;100122.84;5089546;28;19927;-63
2022/10/21 06:14:34;;;;;;;;;;;;;;;3.50;75.73;100125.94;5091362;28;19997;-63
2022/10/21 06:17:02;;;;;;;;;;;;;;;3.39;75.56;100132.88;5090110;28;19973;-63
2022/10/21 06:19:29;;;;;;;;;;;;;;;3.39;75.70;100132.88;5088872;28;19928;-64
2022/10/21 06:21:55;;;;;;;;;;;;;;;3.42;75.93;100134.31;5091144;28;19927;-63
2022/10/21 06:24:21;;;;;;;;;;;;;;;3.45;75.69;100126.63;5090897;28;19928;-64
2022/10/21 06:26:48;;;;;;;;;;;;;;;3.48;75.43;100128.03;5092945;28;20314;-64
2022/10/21 06:29:15;;;;;;;;;;;;;;;3.51;75.52;100125.72;5091695;28;19932;-64
2022/10/21 06:31:40;;;;;;;;;;;;;;;3.62;75.32;100124.19;5090954;28;20039;-63
2022/10/21 06:34:08;;;;;;;;;;;;;;;3.75;74.77;100135.94;5088822;28;20034;-63
2022/10/21 06:36:36;;;;;;;;;;;;;;;3.79;74.68;100137.13;5103021;28;20023;-64
2022/10/21 06:39:02;;;;;;;;;;;;;;;3.80;74.59;100136.94;5092824;28;20318;-64
2022/10/21 06:41:28;;;;;;;;;;;;;;;3.86;74.54;100139.78;5090263;28;19985;-64
2022/10/21 06:43:54;;;;;;;;;;;;;;;3.90;74.67;100144.53;5107872;28;19931;-64
2022/10/21 06:46:20;;;;;;;;;;;;;;;3.96;74.32;100142.81;5094222;28;19984;-64
2022/10/21 06:48:45;;;;;;;;;;;;;;;3.91;74.68;100146.19;5108947;28;19959;-64
2022/10/21 06:51:13;;;;;;;;;;;;;;;3.89;74.72;100136.63;5108952;28;20130;-64
2022/10/21 06:53:39;;;;;;;;;;;;;;;3.92;74.74;100136.22;5109114;28;19957;-66
2022/10/21 06:56:06;;;;;;;;;;;;;;;4.07;74.52;100141.25;5107613;28;20462;-64
2022/10/21 06:58:33;;;;;;;;;;;;;;;4.14;74.31;100141.19;5102537;28;20583;-64
2022/10/21 07:01:04;;;;;;;;;;;;;;;4.14;74.22;100141.19;5104112;28;19932;-64
2022/10/21 07:03:30;;;;;;;;;;;;;;;4.11;74.46;100143.31;5101850;28;20358;-63
2022/10/21 07:05:59;;;;;;;;;;;;;;;4.17;74.47;100138.03;5119784;27;19949;-64
2022/10/21 07:08:26;;;;;;;;;;;;;;;4.24;74.27;100130.69;5095889;28;20039;-63
2022/10/21 07:10:52;;;;;;;;;;;;;;;4.40;73.97;100131.97;5105846;28;20008;-64
2022/10/21 07:13:18;;;;;;;;;;;;;;;4.54;73.99;100132.66;5106876;28;19996;-63
2022/10/21 07:15:45;;;;;;;;;;;;;;;4.80;73.18;100120.66;5089146;28;19949;-64
2022/10/21 07:18:10;;;;;;;;;;;;;;;4.91;72.25;100127.19;5104458;28;20391;-63
2022/10/21 07:20:36;;;;;;;;;;;;;;;5.13;71.79;100129.38;5100435;28;19927;-65
2022/10/21 07:23:02;;;;;;;;;;;;;;;5.31;71.11;100127.69;5100853;28;20034;-64
2022/10/21 07:25:29;;;;;;;;;;;;;;;5.22;70.36;100132.56;5108010;28;20850;-64
2022/10/21 07:27:55;;;;;;;;;;;;;;;5.01;71.11;100126.63;5108614;28;19989;-64
2022/10/21 07:30:22;;;;;;;;;;;;;;;4.91;71.48;100121.75;5106463;28;19928;-64
2022/10/21 07:32:47;;;;;;;;;;;;;;;4.89;71.52;100110.31;5107479;28;19928;-64
2022/10/21 07:35:13;;;;;;;;;;;;;;;4.92;71.38;100114.47;5105843;28;19973;-64
2022/10/21 07:37:39;;;;;;;;;;;;;;;4.94;71.44;100123.19;5107288;28;19927;-64
2022/10/21 07:40:07;;;;;;;;;;;;;;;5.01;71.47;100126.63;5083657;28;19934;-63
2022/10/21 07:42:35;;;;;;;;;;;;;;;5.04;71.37;100122.63;5097845;28;19927;-63
2022/10/21 07:45:02;;;;;;;;;;;;;;;4.98;71.47;100118.94;5101090;28;19935;-64
2022/10/21 07:47:29;;;;;;;;;;;;;;;4.98;71.44;100124.38;5097356;28;20450;-64
2022/10/21 07:49:56;;;;;;;;;;;;;;;5.07;71.28;100122.16;5090576;28;19928;-64
2022/10/21 07:52:22;;;;;;;;;;;;;;;5.13;71.01;100118.53;5097872;28;19970;-63
2022/10/21 07:54:48;;;;;;;;;;;;;;;5.32;70.96;100132.84;5089725;28;19999;-64
2022/10/21 07:57:14;;;;;;;;;;;;;;;5.44;70.32;100132.88;5085383;28;19928;-63
2022/10/21 07:59:41;;;;;;;;;;;;;;;5.40;70.11;100139.81;5094361;28;19953;-63
2022/10/21 08:02:08;;;;;;;;;;;;;;;5.28;70.20;100139.81;5097901;28;19984;-63
2022/10/21 08:04:33;;;;;;;;;;;;;;;5.24;70.41;100138.63;5100140;28;19935;-64
2022/10/21 08:06:59;;;;;;;;;;;;;;;5.21;70.58;100134.47;5099868;28;19928;-63
2022/10/21 08:09:25;;;;;;;;;;;;;;;5.17;70.76;100144.13;5084345;28;19935;-64
2022/10/21 08:11:52;;;;;;;;;;;;;;;5.19;71.04;100143.88;5085547;28;19928;-63
2022/10/21 08:14:18;;;;;;;;;;;;;;;5.32;70.71;100145.59;5086198;28;19977;-64
2022/10/21 08:16:45;;;;;;;;;;;;;;;5.45;70.45;100141.84;5105505;28;19969;-64
2022/10/21 08:19:15;;;;;;;;;;;;;;;5.60;69.59;100133.25;5088065;28;20398;-64
2022/10/21 08:21:41;;;;;;;;;;;;;;;5.75;69.14;100140.97;5101461;28;20432;-64
2022/10/21 08:24:07;;;;;;;;;;;;;;;5.99;68.69;100138.25;5079854;28;19928;-64
2022/10/21 08:26:33;;;;;;;;;;;;;;;6.21;67.69;100133.91;5081232;28;19928;-64
2022/10/21 08:28:58;;;;;;;;;;;;;;;6.52;67.48;100128.31;5105330;27;20006;-64
2022/10/21 08:31:24;;;;;;;;;;;;;;;6.82;66.51;100132.72;5100235;27;19928;-64
2022/10/21 08:33:51;;;;;;;;;;;;;;;7.03;65.71;100133.94;5086540;28;20346;-64
2022/10/21 08:36:18;;;;;;;;;;;;;;;7.11;65.21;100138.16;5086420;28;19929;-64
2022/10/21 08:38:44;;;;;;;;;;;;;;;6.86;65.21;100139.31;5095164;28;19959;-64
2022/10/21 08:41:18;;;;;;;;;;;;;;;6.60;65.58;100133.38;5083979;28;20457;-64
2022/10/21 08:43:44;;;;;;;;;;;;;;;6.37;66.60;100126.91;5103327;28;20407;-64
2022/10/21 08:46:12;;;;;;;;;;;;;;;6.24;67.12;100122.56;5090074;28;20314;-64
2022/10/21 08:48:41;;;;;;;;;;;;;;;6.34;67.34;100110.28;5104505;28;19957;-64
2022/10/21 08:51:11;;;;;;;;;;;;;;;6.47;67.48;100120.06;5104815;28;20007;-64
2022/10/21 08:53:40;;;;;;;;;;;;;;;6.60;67.10;100117.06;5085398;28;19928;-64
2022/10/21 08:56:08;;;;;;;;;;;;;;;6.71;66.86;100114.53;5095213;28;19928;-65
2022/10/21 08:58:34;;;;;;;;;;;;;;;6.84;66.52;100116.16;5103913;28;19927;-64
2022/10/21 09:01:02;;;;;;;;;;;;;;;6.85;65.97;100113.19;5103598;28;20134;-64
2022/10/21 09:03:31;;;;;;;;;;;;;;;6.91;66.11;100116.84;5098097;28;19928;-66
2022/10/21 09:06:12;;;;;;;;;;;;;;;7.06;65.22;100108.97;5097339;28;19928;-64
2022/10/21 09:08:42;;;;;;;;;;;;;;;7.13;64.36;100121.59;5097029;28;19928;-64
2022/10/21 09:11:18;;;;;;;;;;;;;;;6.97;64.40;100117.75;5098685;28;20383;-64
2022/10/21 09:13:51;;;;;;;;;;;;;;;6.93;64.68;100117.41;5100927;28;19934;-64
2022/10/21 09:16:20;;;;;;;;;;;;;;;6.83;65.12;100112.63;5097541;28;20380;-64
2022/10/21 09:18:50;;;;;;;;;;;;;;;6.85;65.26;100115.09;5101828;28;19928;-64
2022/10/21 09:21:22;;;;;;;;;;;;;;;7.17;64.71;100126.28;5100976;28;20159;-64
2022/10/21 09:24:17;;;;;;;;;;;;;;;7.40;63.59;100123.69;5098236;28;19908;-63
2022/10/21 09:26:44;;;;;;;;;;;;;;;7.18;63.63;100125.25;5101173;28;19958;-64
2022/10/21 09:29:22;;;;;;;;;;;;;;;6.87;63.68;100119.25;5106916;28;20291;-63
2022/10/21 09:31:48;;;;;;;;;;;;;;;6.63;64.03;100113.03;5103515;28;20101;-65
2022/10/21 09:34:18;;;;;;;;;;;;;;;6.51;64.43;100122.06;5071039;28;20396;-64
2022/10/21 09:36:47;;;;;;;;;;;;;;;6.43;64.94;100124.31;5089153;28;20437;-64
2022/10/21 09:39:15;;;;;;;;;;;;;;;6.25;65.46;100128.84;5086431;28;19928;-63
2022/10/21 09:41:43;;;;;;;;;;;;;;;5.98;66.15;100140.16;5098812;28;19928;-63
2022/10/21 09:44:13;;;;;;;;;;;;;;;5.75;67.29;100132.81;5099882;28;19932;-65
2022/10/21 09:46:39;;;;;;;;;;;;;;;5.64;68.06;100129.84;5100666;28;20169;-63
2022/10/21 09:49:15;;;;;;;;;;;;;;;5.66;68.16;100124.19;5099248;28;19963;-63
2022/10/21 09:51:43;;;;;;;;;;;;;;;5.76;68.35;100131.75;5100625;28;20498;-63
2022/10/21 09:54:13;;;;;;;;;;;;;;;5.80;68.30;100125.63;5084535;28;20616;-63
2022/10/21 09:56:41;;;;;;;;;;;;;;;5.82;68.07;100128.94;5083444;28;20431;-64
2022/10/21 09:59:10;;;;;;;;;;;;;;;5.93;67.74;100130.00;5084415;28;19931;-64
2022/10/21 10:01:36;;;;;;;;;;;;;;;6.05;67.19;100129.19;5093445;28;19959;-64
2022/10/21 10:04:09;;;;;;;;;;;;;;;6.21;66.74;100133.06;5102433;28;20323;-64
2022/10/21 10:06:36;;;;;;;;;;;;;;;6.33;66.13;100117.59;5099463;28;19928;-63
2022/10/21 10:09:14;;;;;;;;;;;;;;;6.34;65.75;100119.25;5102373;28;19927;-63
2022/10/21 10:11:52;;;;;;;;;;;;;;;6.35;65.79;100115.47;5102690;28;19951;-65
2022/10/21 10:14:24;;;;;;;;;;;;;;;6.32;66.05;100112.38;5087802;28;19928;-64
2022/10/21 10:16:49;;;;;;;;;;;;;;;6.28;66.22;100120.22;5101859;28;19935;-64
2022/10/21 10:19:16;;;;;;;;;;;;;;;6.27;66.13;100124.00;5103042;28;20348;-64
2022/10/21 10:21:42;;;;;;;;;;;;;;;6.16;66.44;100125.63;5071479;28;20003;-64
2022/10/21 10:24:14;;;;;;;;;;;;;;;6.20;66.50;100120.56;5100206;28;19935;-64
2022/10/21 10:26:41;;;;;;;;;;;;;;;6.24;66.30;100119.84;5075997;28;19999;-67
2022/10/21 10:29:09;;;;;;;;;;;;;;;6.27;66.10;100109.56;5111726;28;20046;-65
2022/10/21 10:31:37;;;;;;;;;;;;;;;6.35;65.82;100110.03;5111143;28;19953;-64
2022/10/21 10:34:05;;;;;;;;;;;;;;;6.38;65.32;100106.03;5105064;28;19927;-64
2022/10/21 10:36:33;;;;;;;;;;;;;;;6.32;65.42;100106.97;5106635;28;19927;-64
2022/10/21 10:39:00;;;;;;;;;;;;;;;6.45;65.36;100103.19;5107338;28;19938;-64
2022/10/21 10:41:32;;;;;;;;;;;;;;;6.65;64.81;100108.22;5101045;28;19950;-64
2022/10/21 10:43:58;;;;;;;;;;;;;;;6.76;64.39;100101.88;5105881;28;20485;-64
2022/10/21 10:46:26;;;;;;;;;;;;;;;6.86;63.87;100103.97;5083489;28;19928;-65
2022/10/21 10:48:52;;;;;;;;;;;;;;;7.00;63.47;100101.81;5100186;28;19934;-65
2022/10/21 10:51:26;;;;;;;;;;;;;;;6.99;63.13;100097.44;5108152;28;19928;-65
2022/10/21 10:54:00;;;;;;;;;;;;;;;7.03;62.94;100090.44;5105347;28;19927;-65
2022/10/21 10:56:27;;;;;;;;;;;;;;;7.01;62.63;100092.56;5104231;28;20322;-65
2022/10/21 10:59:00;;;;;;;;;;;;;;;7.11;62.55;100089.22;5110406;28;19928;-64
2022/10/21 11:01:30;;;;;;;;;;;;;;;7.22;62.35;100076.59;5103544;28;20361;-65
2022/10/21 11:03:58;;;;;;;;;;;;;;;7.49;61.64;100071.38;5104473;28;20034;-65
2022/10/21 11:06:30;;;;;;;;;;;;;;;7.65;60.78;100079.78;5103332;28;20381;-65
2022/10/21 11:08:57;;;;;;;;;;;;;;;7.56;60.68;100073.09;5103058;28;19927;-64
2022/10/21 11:11:24;;;;;;;;;;;;;;;7.34;60.79;100080.09;5096852;28;19967;-64
2022/10/21 11:13:57;;;;;;;;;;;;;;;7.10;61.40;100090.28;5099780;28;20465;-64
2022/10/21 11:16:41;;;;;;;;;;;;;;;6.89;62.10;100089.06;5098925;28;20419;-64
2022/10/21 11:19:11;;;;;;;;;;;;;;;6.82;62.45;100089.22;5089256;28;19924;-64
2022/10/21 11:21:44;;;;;;;;;;;;;;;6.76;62.48;100093.72;5094754;28;20025;-64
2022/10/21 11:24:21;;;;;;;;;;;;;;;6.62;63.04;100089.63;5080694;28;20277;-64
2022/10/21 11:26:53;;;;;;;;;;;;;;;6.49;63.16;100090.75;5096571;28;20318;-64
2022/10/21 11:29:24;;;;;;;;;;;;;;;6.42;63.30;100090.06;5097124;28;19932;-65
2022/10/21 11:31:55;;;;;;;;;;;;;;;6.27;64.13;100094.13;5096674;28;20314;-65
2022/10/21 11:34:25;;;;;;;;;;;;;;;6.19;64.52;100086.31;5098915;28;20022;-65
2022/10/21 11:36:57;;;;;;;;;;;;;;;6.10;65.06;100075.00;5097769;28;19928;-66
2022/10/21 11:39:37;;;;;;;;;;;;;;;6.07;65.56;100076.31;5096984;28;20370;-66
2022/10/21 11:42:07;;;;;;;;;;;;;;;6.04;65.89;100073.25;5102534;28;20000;-66
2022/10/21 11:44:38;;;;;;;;;;;;;;;5.97;65.97;100067.91;5104179;28;19931;-66
2022/10/21 11:47:10;;;;;;;;;;;;;;;6.04;66.09;100067.84;5093434;28;19981;-66
2022/10/21 11:49:43;;;;;;;;;;;;;;;6.02;66.17;100059.09;5106591;28;19927;-66
2022/10/21 11:52:16;;;;;;;;;;;;;;;6.04;66.12;100052.34;5090901;28;19932;-66
2022/10/21 11:54:49;;;;;;;;;;;;;;;6.04;66.04;100049.63;5102511;28;19931;-65
2022/10/21 11:57:18;;;;;;;;;;;;;;;6.12;65.90;100055.78;5094279;28;20398;-66
2022/10/21 11:59:53;;;;;;;;;;;;;;;6.02;66.18;100059.91;5107585;28;19927;-66
2022/10/21 12:02:20;;;;;;;;;;;;;;;5.81;66.82;100066.75;5100624;28;19932;-65
2022/10/21 12:04:49;;;;;;;;;;;;;;;5.78;66.96;100067.22;5081315;28;19928;-66
2022/10/21 12:07:34;;;;;;;;;;;;;;;5.70;67.35;100062.97;5093612;28;19981;-66
2022/10/21 12:10:05;;;;;;;;;;;;;;;5.69;67.62;100064.03;5095240;28;19970;-66
2022/10/21 12:12:32;;;;;;;;;;;;;;;5.71;67.72;100061.09;5101045;28;19927;-66
2022/10/21 12:15:04;;;;;;;;;;;;;;;5.55;67.85;100041.75;5098872;28;20243;-65
2022/10/21 12:17:32;;;;;;;;;;;;;;;5.60;68.15;100058.13;5090548;28;20143;-65
2022/10/21 12:20:00;;;;;;;;;;;;;;;5.54;68.48;100057.19;5086496;28;19971;-66
2022/10/21 12:22:28;;;;;;;;;;;;;;;5.54;68.37;100059.91;5094957;28;19935;-66
2022/10/21 12:24:59;;;;;;;;;;;;;;;5.58;68.58;100067.56;5072564;28;20367;-66
2022/10/21 12:27:28;;;;;;;;;;;;;;;5.63;68.31;100067.69;5091296;28;20407;-66
2022/10/21 12:30:07;;;;;;;;;;;;;;;5.61;68.42;100069.78;5088675;28;19928;-66
2022/10/21 12:32:37;;;;;;;;;;;;;;;5.52;68.64;100072.03;5083341;28;20423;-66
2022/10/21 12:35:04;;;;;;;;;;;;;;;5.43;68.63;100060.72;5083861;28;19927;-66
2022/10/21 12:37:43;;;;;;;;;;;;;;;5.43;68.93;100060.72;5084450;28;19958;-66
2022/10/21 12:40:11;;;;;;;;;;;;;;;5.46;69.21;100067.56;5095399;28;20425;-65
2022/10/21 12:42:43;;;;;;;;;;;;;;;5.49;69.18;100056.22;5107434;28;19928;-65
2022/10/21 12:45:24;;;;;;;;;;;;;;;5.53;68.91;100054.69;5104018;28;19939;-66
2022/10/21 12:47:51;;;;;;;;;;;;;;;5.60;68.46;100041.03;5096488;28;20384;-65
2022/10/21 12:50:21;;;;;;;;;;;;;;;5.68;68.43;100040.69;5106827;28;19935;-66
2022/10/21 12:53:01;;;;;;;;;;;;;;;5.75;68.23;100040.56;5108817;28;19927;-66